Time;durP1;ratioP1;P1;durP2;ratioP2;P2;SDS_P1;SDS_P2;PMS_P1;PMS_P2;Temp;Humidity;BMP_temperature;BMP_pressure;BME280_temperature;BME280_humidity;BME280_pressure;Samples;Min_cycle;Max_cycle;Signal;HPM_P1;HPM_P2
2020/12/25 00:01:29;;;;;;;7.28;4.95;;;;;;;;;;4997768;28;20054;-77
2020/12/25 00:03:56;;;;;;;9.02;5.70;;;;;;;;;;5001351;28;20046;-76
2020/12/25 00:06:22;;;;;;;9.00;5.72;;;;;;;;;;5001117;28;20046;-77
2020/12/25 00:08:49;;;;;;;9.23;5.18;;;;;;;;;;5008879;28;20078;-77
2020/12/25 00:11:15;;;;;;;8.98;5.68;;;;;;;;;;5003171;28;20047;-77
2020/12/25 00:13:46;;;;;;;6.38;4.65;;;;;;;;;;5012773;28;20389;-77
2020/12/25 00:16:12;;;;;;;7.03;4.68;;;;;;;;;;5003124;28;20050;-75
2020/12/25 00:18:41;;;;;;;7.07;4.70;;;;;;;;;;5009318;28;20052;-76
2020/12/25 00:21:07;;;;;;;6.25;4.20;;;;;;;;;;5009704;28;20070;-77
2020/12/25 00:23:34;;;;;;;7.40;4.20;;;;;;;;;;5009274;28;20518;-75
2020/12/25 00:26:00;;;;;;;6.88;4.97;;;;;;;;;;5003618;28;20049;-76
2020/12/25 00:28:26;;;;;;;7.80;4.80;;;;;;;;;;5003139;28;20051;-76
2020/12/25 00:30:52;;;;;;;7.60;5.18;;;;;;;;;;5014167;28;20048;-77
2020/12/25 00:33:18;;;;;;;9.25;4.93;;;;;;;;;;5015968;28;20050;-74
2020/12/25 00:35:44;;;;;;;8.50;5.72;;;;;;;;;;5000476;28;20057;-81
2020/12/25 00:38:11;;;;;;;8.95;5.53;;;;;;;;;;5010028;28;20046;-76
2020/12/25 00:40:43;;;;;;;7.57;5.03;;;;;;;;;;5009263;28;20050;-74
2020/12/25 00:43:11;;;;;;;7.03;4.95;;;;;;;;;;5002674;28;20052;-75
2020/12/25 00:45:38;;;;;;;8.13;4.47;;;;;;;;;;5014127;28;20062;-73
2020/12/25 00:48:04;;;;;;;7.47;5.00;;;;;;;;;;5004543;28;20068;-74
2020/12/25 00:50:30;;;;;;;8.65;5.50;;;;;;;;;;5008644;28;20064;-74
2020/12/25 00:52:56;;;;;;;8.88;5.18;;;;;;;;;;5009872;28;20486;-74
2020/12/25 00:55:22;;;;;;;6.97;4.97;;;;;;;;;;5006830;28;20326;-74
2020/12/25 00:57:49;;;;;;;7.40;4.95;;;;;;;;;;4996160;28;20064;-74
2020/12/25 01:00:15;;;;;;;10.02;5.00;;;;;;;;;;5001017;28;20555;-73
2020/12/25 01:02:42;;;;;;;7.57;4.95;;;;;;;;;;5004686;28;20060;-74
2020/12/25 01:05:08;;;;;;;7.68;5.25;;;;;;;;;;5002071;28;20112;-74
2020/12/25 01:07:34;;;;;;;9.50;5.43;;;;;;;;;;4998232;28;20045;-74
2020/12/25 01:10:00;;;;;;;8.02;5.20;;;;;;;;;;5002270;28;20042;-74
2020/12/25 01:12:26;;;;;;;9.07;5.65;;;;;;;;;;5003143;28;20134;-74
2020/12/25 01:14:53;;;;;;;6.75;5.07;;;;;;;;;;5006627;28;20046;-74
2020/12/25 01:17:19;;;;;;;7.72;5.45;;;;;;;;;;5012247;28;20037;-74
2020/12/25 01:19:45;;;;;;;6.80;4.78;;;;;;;;;;5001367;28;20049;-74
2020/12/25 01:22:11;;;;;;;5.72;4.70;;;;;;;;;;5004887;28;20052;-74
2020/12/25 01:24:37;;;;;;;8.43;5.30;;;;;;;;;;5007070;28;20415;-74
2020/12/25 01:27:03;;;;;;;7.97;5.25;;;;;;;;;;4997295;28;20046;-74
2020/12/25 01:29:29;;;;;;;6.65;5.00;;;;;;;;;;5005082;28;20096;-75
2020/12/25 01:31:56;;;;;;;9.43;5.25;;;;;;;;;;5002846;28;20046;-73
2020/12/25 01:34:31;;;;;;;8.27;4.78;;;;;;;;;;5009609;28;20049;-74
2020/12/25 01:36:57;;;;;;;6.50;4.93;;;;;;;;;;5001876;28;20060;-75
2020/12/25 01:39:23;;;;;;;7.10;4.80;;;;;;;;;;5003216;28;20056;-74
2020/12/25 01:41:49;;;;;;;6.82;4.75;;;;;;;;;;5003050;28;20038;-74
2020/12/25 01:44:15;;;;;;;6.80;5.07;;;;;;;;;;4994713;28;20050;-74
2020/12/25 01:46:41;;;;;;;7.35;5.50;;;;;;;;;;5009832;28;20144;-73
2020/12/25 01:49:08;;;;;;;7.70;5.50;;;;;;;;;;5002582;28;20042;-73
2020/12/25 01:51:34;;;;;;;8.82;5.40;;;;;;;;;;5003528;28;20061;-73
2020/12/25 01:54:00;;;;;;;7.78;5.05;;;;;;;;;;5008747;28;20041;-75
2020/12/25 01:56:26;;;;;;;8.05;4.97;;;;;;;;;;4997301;28;20060;-75
2020/12/25 01:58:53;;;;;;;8.70;4.97;;;;;;;;;;4998067;28;20129;-73
2020/12/25 02:01:19;;;;;;;9.35;4.68;;;;;;;;;;5009668;28;20050;-73
2020/12/25 02:03:45;;;;;;;7.53;4.60;;;;;;;;;;5007054;28;20054;-74
2020/12/25 02:06:12;;;;;;;8.43;5.32;;;;;;;;;;5000659;28;20056;-73
2020/12/25 02:08:38;;;;;;;7.38;4.50;;;;;;;;;;5002035;28;20583;-74
2020/12/25 02:11:05;;;;;;;8.75;5.38;;;;;;;;;;4991588;28;20137;-74
2020/12/25 02:13:32;;;;;;;8.35;4.63;;;;;;;;;;4999844;28;20427;-75
2020/12/25 02:15:58;;;;;;;7.78;5.28;;;;;;;;;;5005682;28;20384;-75
2020/12/25 02:18:31;;;;;;;7.07;4.47;;;;;;;;;;5000889;28;20046;-76
2020/12/25 02:21:00;;;;;;;8.95;5.43;;;;;;;;;;5006436;28;20046;-75
2020/12/25 02:23:26;;;;;;;5.47;4.22;;;;;;;;;;5002387;28;21300;-75
2020/12/25 02:25:52;;;;;;;6.25;4.93;;;;;;;;;;5011827;28;20054;-76
2020/12/25 02:28:19;;;;;;;6.07;4.43;;;;;;;;;;4993148;28;20042;-76
2020/12/25 02:30:45;;;;;;;6.88;4.90;;;;;;;;;;5010724;28;20053;-76
2020/12/25 02:33:11;;;;;;;6.38;4.65;;;;;;;;;;5010456;28;20263;-77
2020/12/25 02:35:37;;;;;;;5.25;3.83;;;;;;;;;;5003473;28;20061;-77
2020/12/25 02:38:03;;;;;;;5.35;4.13;;;;;;;;;;5005206;28;20513;-77
2020/12/25 02:40:29;;;;;;;5.32;4.20;;;;;;;;;;4998893;28;20482;-77
2020/12/25 02:42:55;;;;;;;5.88;4.22;;;;;;;;;;4999708;28;20052;-76
2020/12/25 02:45:21;;;;;;;7.78;4.28;;;;;;;;;;4994169;28;20047;-77
2020/12/25 02:47:48;;;;;;;7.85;4.63;;;;;;;;;;5001750;28;20423;-77
2020/12/25 02:50:14;;;;;;;5.43;3.92;;;;;;;;;;4996158;28;20045;-75
2020/12/25 02:52:40;;;;;;;6.18;4.30;;;;;;;;;;5004943;28;20050;-73
2020/12/25 02:55:07;;;;;;;5.30;3.78;;;;;;;;;;5005804;28;20558;-77
2020/12/25 02:57:34;;;;;;;7.13;4.15;;;;;;;;;;4999849;28;20057;-75
2020/12/25 03:00:00;;;;;;;5.05;4.07;;;;;;;;;;4999993;28;20470;-75
2020/12/25 03:02:26;;;;;;;8.68;5.13;;;;;;;;;;4997617;28;20046;-76
2020/12/25 03:04:52;;;;;;;7.13;4.22;;;;;;;;;;5004597;28;20053;-76
2020/12/25 03:07:18;;;;;;;7.30;4.05;;;;;;;;;;4998737;28;20763;-74
2020/12/25 03:09:44;;;;;;;7.50;4.45;;;;;;;;;;5008403;28;20052;-76
2020/12/25 03:12:10;;;;;;;9.18;4.95;;;;;;;;;;4998807;28;20129;-76
2020/12/25 03:14:37;;;;;;;6.22;4.10;;;;;;;;;;5006038;28;20426;-75
2020/12/25 03:17:03;;;;;;;7.28;4.30;;;;;;;;;;5003205;28;20051;-76
2020/12/25 03:19:29;;;;;;;4.45;3.10;;;;;;;;;;5002611;28;20051;-76
2020/12/25 03:21:55;;;;;;;5.28;3.85;;;;;;;;;;4996468;28;20050;-76
2020/12/25 03:24:23;;;;;;;5.43;4.15;;;;;;;;;;4998872;28;20497;-76
2020/12/25 03:26:49;;;;;;;6.32;3.85;;;;;;;;;;5004277;28;20377;-76
2020/12/25 03:29:15;;;;;;;5.75;4.13;;;;;;;;;;5004903;28;20120;-76
2020/12/25 03:31:41;;;;;;;5.20;3.78;;;;;;;;;;5009688;28;20072;-76
2020/12/25 03:34:08;;;;;;;5.55;3.42;;;;;;;;;;4999402;28;20050;-77
2020/12/25 03:36:34;;;;;;;4.65;3.25;;;;;;;;;;4998042;28;20062;-75
2020/12/25 03:39:00;;;;;;;4.95;3.67;;;;;;;;;;5001497;28;20043;-76
2020/12/25 03:41:27;;;;;;;6.18;3.83;;;;;;;;;;5001054;28;20542;-76
2020/12/25 03:43:53;;;;;;;6.00;3.55;;;;;;;;;;5000636;28;22139;-76
2020/12/25 03:46:19;;;;;;;5.10;3.85;;;;;;;;;;5005647;28;20054;-76
2020/12/25 03:48:45;;;;;;;4.82;3.20;;;;;;;;;;4996949;28;20484;-76
2020/12/25 03:51:11;;;;;;;4.25;3.50;;;;;;;;;;4995531;28;20046;-77
2020/12/25 03:53:37;;;;;;;4.50;3.20;;;;;;;;;;5000763;28;20039;-75
2020/12/25 03:56:03;;;;;;;5.57;3.45;;;;;;;;;;5008143;28;20618;-77
2020/12/25 03:58:29;;;;;;;5.10;3.38;;;;;;;;;;4987376;28;20465;-75
2020/12/25 04:00:55;;;;;;;4.70;3.40;;;;;;;;;;4996726;28;20047;-75
2020/12/25 04:03:21;;;;;;;4.97;2.90;;;;;;;;;;5004364;28;20129;-76
2020/12/25 04:05:51;;;;;;;4.93;3.40;;;;;;;;;;5007602;28;20061;-75
2020/12/25 04:08:17;;;;;;;5.07;3.15;;;;;;;;;;5009152;28;20046;-75
2020/12/25 04:10:43;;;;;;;5.30;3.88;;;;;;;;;;5003267;28;20060;-75
2020/12/25 04:13:10;;;;;;;5.00;3.72;;;;;;;;;;5001965;28;20046;-75
2020/12/25 04:15:36;;;;;;;5.35;3.58;;;;;;;;;;5009242;28;20052;-75
2020/12/25 04:18:02;;;;;;;4.43;2.97;;;;;;;;;;5004502;28;20048;-75
2020/12/25 04:20:28;;;;;;;4.68;3.25;;;;;;;;;;5006727;28;20050;-74
2020/12/25 04:22:54;;;;;;;4.82;3.40;;;;;;;;;;5001894;28;20054;-74
2020/12/25 04:25:20;;;;;;;5.22;3.30;;;;;;;;;;5010648;28;20042;-75
2020/12/25 04:27:47;;;;;;;5.63;3.83;;;;;;;;;;5002960;28;20128;-75
2020/12/25 04:30:13;;;;;;;5.70;3.65;;;;;;;;;;5003226;28;20038;-73
2020/12/25 04:32:39;;;;;;;6.53;3.90;;;;;;;;;;5007000;28;20053;-75
2020/12/25 04:35:05;;;;;;;4.20;3.17;;;;;;;;;;5010080;28;20046;-75
2020/12/25 04:37:32;;;;;;;4.45;3.33;;;;;;;;;;5002805;28;20054;-75
2020/12/25 04:39:59;;;;;;;4.88;3.42;;;;;;;;;;5000165;28;20109;-75
2020/12/25 04:42:26;;;;;;;7.75;3.70;;;;;;;;;;5007802;28;20054;-75
2020/12/25 04:44:52;;;;;;;5.13;3.20;;;;;;;;;;5004501;28;20064;-74
2020/12/25 04:47:18;;;;;;;5.47;3.65;;;;;;;;;;5003617;28;20046;-75
2020/12/25 04:49:45;;;;;;;5.30;3.40;;;;;;;;;;5005031;28;20049;-75
2020/12/25 04:52:11;;;;;;;5.15;3.90;;;;;;;;;;5004539;28;20054;-74
2020/12/25 04:54:38;;;;;;;6.55;3.63;;;;;;;;;;5003285;28;20047;-74
2020/12/25 04:57:04;;;;;;;6.15;3.83;;;;;;;;;;4996802;28;20480;-75
2020/12/25 04:59:30;;;;;;;4.97;3.78;;;;;;;;;;4998333;28;20046;-74
2020/12/25 05:01:59;;;;;;;4.68;3.13;;;;;;;;;;5012142;28;20560;-73
2020/12/25 05:04:26;;;;;;;6.30;3.63;;;;;;;;;;5006260;28;20038;-73
2020/12/25 05:06:53;;;;;;;5.32;3.63;;;;;;;;;;5004425;28;20046;-75
2020/12/25 05:09:23;;;;;;;5.28;3.50;;;;;;;;;;5007293;28;20042;-75
2020/12/25 05:11:49;;;;;;;;;;;;;;;;;;5004997;28;20045;-75
2020/12/25 05:14:16;;;;;;;4.80;3.22;;;;;;;;;;5007924;28;19930;-75
2020/12/25 05:16:42;;;;;;;4.90;3.72;;;;;;;;;;5000798;28;20049;-74
2020/12/25 05:19:10;;;;;;;6.18;3.97;;;;;;;;;;5002885;28;20050;-75
2020/12/25 05:21:40;;;;;;;4.78;3.03;;;;;;;;;;4999490;28;20060;-75
2020/12/25 05:24:07;;;;;;;4.35;3.05;;;;;;;;;;4998932;28;20042;-75
2020/12/25 05:26:34;;;;;;;5.38;3.60;;;;;;;;;;5000622;28;20053;-76
2020/12/25 05:29:00;;;;;;;6.03;3.60;;;;;;;;;;5010038;28;20045;-75
2020/12/25 05:31:27;;;;;;;6.30;3.50;;;;;;;;;;5021488;23;20052;-79
2020/12/25 05:33:55;;;;;;;5.03;3.67;;;;;;;;;;5004714;28;20050;-82
2020/12/25 05:36:26;;;;;;;6.53;3.72;;;;;;;;;;5003037;28;20045;-80
2020/12/25 05:38:52;;;;;;;5.10;3.42;;;;;;;;;;5000294;28;20058;-80
2020/12/25 05:41:19;;;;;;;4.55;3.53;;;;;;;;;;5000856;28;20042;-81
2020/12/25 05:43:48;;;;;;;4.85;3.47;;;;;;;;;;5010291;28;20054;-79
2020/12/25 05:46:15;;;;;;;5.32;3.15;;;;;;;;;;5003651;28;20053;-79
2020/12/25 05:48:41;;;;;;;4.75;3.65;;;;;;;;;;5007211;28;20046;-79
2020/12/25 05:51:08;;;;;;;6.80;3.42;;;;;;;;;;5003360;28;20132;-81
2020/12/25 05:53:35;;;;;;;5.82;3.63;;;;;;;;;;5003430;28;20046;-82
2020/12/25 05:56:01;;;;;;;3.88;3.15;;;;;;;;;;4998420;28;20053;-84
2020/12/25 05:58:30;;;;;;;5.55;3.67;;;;;;;;;;5000079;28;20066;-80
2020/12/25 06:00:56;;;;;;;4.40;3.30;;;;;;;;;;4999645;28;20046;-81
2020/12/25 06:03:22;;;;;;;5.70;3.63;;;;;;;;;;4994829;28;20663;-81
2020/12/25 06:05:49;;;;;;;6.22;3.65;;;;;;;;;;5002723;28;20050;-81
2020/12/25 06:08:17;;;;;;;4.53;3.10;;;;;;;;;;5010895;28;20052;-82
2020/12/25 06:10:45;;;;;;;4.88;3.33;;;;;;;;;;5006135;28;20131;-81
2020/12/25 06:13:15;;;;;;;4.55;2.83;;;;;;;;;;5002126;28;20056;-82
2020/12/25 06:15:45;;;;;;;4.10;2.78;;;;;;;;;;4995563;28;20064;-82
2020/12/25 06:18:14;;;;;;;4.25;3.00;;;;;;;;;;5000852;28;20136;-82
2020/12/25 06:21:04;;;;;;;4.22;3.08;;;;;;;;;;5001322;28;20053;-81
2020/12/25 06:23:31;;;;;;;4.95;2.97;;;;;;;;;;4962893;28;20064;-81
2020/12/25 06:25:57;;;;;;;3.60;2.55;;;;;;;;;;5002537;28;20407;-81
2020/12/25 06:28:23;;;;;;;5.85;3.45;;;;;;;;;;4996506;28;20050;-82
2020/12/25 06:30:49;;;;;;;4.25;2.60;;;;;;;;;;4999718;28;20061;-78
2020/12/25 06:33:15;;;;;;;4.32;2.60;;;;;;;;;;5002398;28;20418;-79
2020/12/25 06:35:43;;;;;;;3.90;2.53;;;;;;;;;;5003595;28;20264;-77
2020/12/25 06:38:18;;;;;;;3.70;2.85;;;;;;;;;;4999025;28;20046;-82
2020/12/25 06:40:44;;;;;;;4.82;3.00;;;;;;;;;;4997618;28;20054;-80
2020/12/25 06:43:15;;;;;;;4.00;2.97;;;;;;;;;;5000772;28;20432;-83
2020/12/25 06:45:42;;;;;;;3.47;2.65;;;;;;;;;;5003121;28;20540;-81
2020/12/25 06:48:12;;;;;;;4.38;2.70;;;;;;;;;;5004278;28;20189;-84
2020/12/25 06:50:38;;;;;;;;;;;;;;;;;;5002790;28;20046;-82
2020/12/25 06:53:04;;;;;;;4.63;1.95;;;;;;;;;;5002600;28;19932;-86
2020/12/25 06:55:43;;;;;;;2.63;1.90;;;;;;;;;;5001628;28;20115;-83
2020/12/25 06:58:10;;;;;;;3.00;2.25;;;;;;;;;;4980252;28;20060;-82
2020/12/25 07:00:40;;;;;;;2.88;2.45;;;;;;;;;;5004931;28;20133;-79
2020/12/25 07:03:11;;;;;;;3.25;2.50;;;;;;;;;;5002212;28;20046;-80
2020/12/25 07:05:49;;;;;;;5.95;2.35;;;;;;;;;;5003840;28;20074;-79
2020/12/25 07:08:29;;;;;;;3.28;2.35;;;;;;;;;;4997432;28;20783;-86
2020/12/25 07:10:58;;;;;;;4.50;2.58;;;;;;;;;;4996966;28;20283;-86
2020/12/25 07:13:24;;;;;;;3.85;2.10;;;;;;;;;;5003413;28;20054;-86
2020/12/25 07:15:51;;;;;;;3.42;2.10;;;;;;;;;;5004968;28;20068;-86
2020/12/25 07:18:17;;;;;;;4.45;2.15;;;;;;;;;;5001111;28;20400;-85
2020/12/25 07:20:43;;;;;;;3.40;2.33;;;;;;;;;;5015257;28;20137;-85
2020/12/25 07:23:10;;;;;;;3.08;2.03;;;;;;;;;;5018364;28;20073;-87
2020/12/25 07:25:39;;;;;;;4.03;2.75;;;;;;;;;;5013333;28;20046;-85
2020/12/25 07:28:05;;;;;;;5.32;2.42;;;;;;;;;;5018221;28;20061;-87
2020/12/25 07:30:31;;;;;;;6.15;3.00;;;;;;;;;;5000811;28;20051;-85
2020/12/25 07:32:59;;;;;;;3.75;2.17;;;;;;;;;;5000362;28;20057;-85
2020/12/25 07:35:25;;;;;;;3.05;2.08;;;;;;;;;;5009542;28;20451;-85
2020/12/25 07:37:52;;;;;;;3.47;2.40;;;;;;;;;;5013882;28;20132;-83
2020/12/25 07:40:18;;;;;;;3.53;2.10;;;;;;;;;;5005073;28;20507;-82
2020/12/25 07:42:46;;;;;;;3.00;1.98;;;;;;;;;;5005784;28;20096;-83
2020/12/25 07:45:12;;;;;;;3.45;2.00;;;;;;;;;;5001361;28;20050;-83
2020/12/25 07:47:39;;;;;;;3.42;2.47;;;;;;;;;;5003052;28;21609;-83
2020/12/25 07:50:05;;;;;;;4.53;2.80;;;;;;;;;;5007425;28;20089;-84
2020/12/25 07:52:31;;;;;;;3.05;2.08;;;;;;;;;;5009338;28;20052;-81
2020/12/25 07:55:16;;;;;;;3.63;2.15;;;;;;;;;;5006036;28;20058;-81
2020/12/25 07:57:42;;;;;;;3.13;1.92;;;;;;;;;;5004849;28;20487;-87
2020/12/25 08:00:08;;;;;;;5.82;2.50;;;;;;;;;;4997554;28;20061;-83
2020/12/25 08:02:34;;;;;;;2.85;2.13;;;;;;;;;;5007263;28;20045;-87
2020/12/25 08:05:01;;;;;;;3.67;1.77;;;;;;;;;;5004489;28;20495;-83
2020/12/25 08:07:27;;;;;;;6.88;2.03;;;;;;;;;;5008574;28;20046;-80
2020/12/25 08:10:00;;;;;;;3.85;1.88;;;;;;;;;;5005513;28;20227;-80
2020/12/25 08:12:28;;;;;;;9.65;2.25;;;;;;;;;;5002566;28;20049;-80
2020/12/25 08:14:58;;;;;;;5.15;2.50;;;;;;;;;;5009621;28;20136;-80
2020/12/25 08:17:24;;;;;;;;;;;;;;;;;;5005306;28;20050;-80
2020/12/25 08:19:53;;;;;;;6.90;2.15;;;;;;;;;;5007219;28;19921;-81
2020/12/25 08:22:20;;;;;;;10.02;2.65;;;;;;;;;;5002089;28;20042;-75
2020/12/25 08:24:46;;;;;;;2.67;1.60;;;;;;;;;;5003714;28;20129;-81
2020/12/25 08:27:16;;;;;;;5.55;2.53;;;;;;;;;;5006528;28;20045;-78
2020/12/25 08:29:45;;;;;;;4.50;2.20;;;;;;;;;;5009874;28;20053;-79
2020/12/25 08:32:12;;;;;;;14.68;2.92;;;;;;;;;;5000404;28;20085;-80
2020/12/25 08:34:39;;;;;;;5.40;2.08;;;;;;;;;;4998834;28;20088;-80
2020/12/25 08:37:08;;;;;;;4.68;1.85;;;;;;;;;;5004304;28;20057;-80
2020/12/25 08:39:35;;;;;;;7.00;2.40;;;;;;;;;;5004078;28;20057;-80
2020/12/25 08:42:01;;;;;;;4.10;2.25;;;;;;;;;;5004657;28;20039;-80
2020/12/25 08:44:27;;;;;;;5.55;2.10;;;;;;;;;;5007349;28;20478;-80
2020/12/25 08:47:09;;;;;;;2.85;1.92;;;;;;;;;;5048395;22;20058;-81
2020/12/25 08:49:36;;;;;;;4.15;2.28;;;;;;;;;;5001629;28;20056;-77
2020/12/25 08:52:02;;;;;;;4.88;2.35;;;;;;;;;;5008419;28;20160;-80
2020/12/25 08:54:29;;;;;;;3.53;1.85;;;;;;;;;;5012531;28;20053;-80
2020/12/25 08:56:56;;;;;;;3.03;2.00;;;;;;;;;;5007384;28;20046;-80
2020/12/25 08:59:22;;;;;;;3.78;2.00;;;;;;;;;;5006441;28;20522;-80
2020/12/25 09:01:49;;;;;;;3.55;2.13;;;;;;;;;;5001213;28;20057;-79
2020/12/25 09:04:22;;;;;;;7.13;2.92;;;;;;;;;;5004695;28;20768;-81
2020/12/25 09:06:49;;;;;;;5.72;3.00;;;;;;;;;;4991235;28;20053;-80
2020/12/25 09:09:27;;;;;;;4.70;2.65;;;;;;;;;;5006533;28;20427;-77
2020/12/25 09:11:56;;;;;;;4.95;3.03;;;;;;;;;;5014908;28;20139;-78
2020/12/25 09:14:22;;;;;;;5.25;3.22;;;;;;;;;;5003243;28;20134;-71
2020/12/25 09:16:48;;;;;;;4.88;3.00;;;;;;;;;;5005850;28;20412;-72
2020/12/25 09:19:14;;;;;;;6.40;3.45;;;;;;;;;;4985262;28;20043;-72
2020/12/25 09:21:41;;;;;;;5.28;2.67;;;;;;;;;;4998233;28;20054;-72
2020/12/25 09:24:08;;;;;;;5.65;3.55;;;;;;;;;;5003480;28;20056;-74
2020/12/25 09:26:34;;;;;;;4.70;2.85;;;;;;;;;;4997769;28;20052;-73
2020/12/25 09:29:00;;;;;;;5.10;3.20;;;;;;;;;;5009741;28;20481;-71
2020/12/25 09:31:26;;;;;;;4.18;2.97;;;;;;;;;;5001351;28;20045;-72
2020/12/25 09:33:52;;;;;;;4.35;2.90;;;;;;;;;;5001026;28;20046;-72
2020/12/25 09:36:18;;;;;;;3.70;2.92;;;;;;;;;;5001027;28;20057;-76
2020/12/25 09:38:44;;;;;;;4.53;3.00;;;;;;;;;;5002702;28;20137;-74
2020/12/25 09:41:12;;;;;;;3.67;2.70;;;;;;;;;;4996010;28;20125;-76
2020/12/25 09:43:38;;;;;;;4.15;2.60;;;;;;;;;;5002038;28;20472;-75
2020/12/25 09:46:04;;;;;;;5.90;2.67;;;;;;;;;;4994424;28;20088;-75
2020/12/25 09:48:30;;;;;;;4.93;2.45;;;;;;;;;;5001014;28;20315;-75
2020/12/25 09:50:57;;;;;;;4.57;2.50;;;;;;;;;;4998045;28;20056;-74
2020/12/25 09:53:24;;;;;;;5.80;2.50;;;;;;;;;;4998953;28;20050;-73
2020/12/25 09:55:50;;;;;;;3.40;2.00;;;;;;;;;;4989929;28;20407;-74
2020/12/25 09:58:16;;;;;;;3.30;2.22;;;;;;;;;;4986731;28;20056;-74
2020/12/25 10:00:43;;;;;;;3.95;2.38;;;;;;;;;;4989207;28;20065;-75
2020/12/25 10:03:09;;;;;;;3.05;2.00;;;;;;;;;;4981283;28;20093;-74
2020/12/25 10:05:35;;;;;;;5.30;2.10;;;;;;;;;;5005084;28;20050;-74
2020/12/25 10:08:01;;;;;;;4.60;2.42;;;;;;;;;;5003317;28;20042;-74
2020/12/25 10:10:27;;;;;;;2.58;1.90;;;;;;;;;;5003214;28;20497;-73
2020/12/25 10:12:54;;;;;;;3.20;2.10;;;;;;;;;;4999452;28;20054;-75
2020/12/25 10:15:24;;;;;;;3.70;2.17;;;;;;;;;;5000542;28;20495;-77
2020/12/25 10:17:50;;;;;;;5.00;2.53;;;;;;;;;;4994769;28;20543;-76
2020/12/25 10:20:16;;;;;;;3.10;1.67;;;;;;;;;;5000873;28;20046;-76
2020/12/25 10:22:43;;;;;;;3.15;1.83;;;;;;;;;;5002794;28;20052;-76
2020/12/25 10:25:09;;;;;;;3.92;2.35;;;;;;;;;;4985700;28;20061;-76
2020/12/25 10:27:40;;;;;;;3.60;1.85;;;;;;;;;;4987923;28;20057;-77
2020/12/25 10:30:07;;;;;;;3.35;2.28;;;;;;;;;;4999195;28;20625;-76
2020/12/25 10:32:37;;;;;;;3.67;1.90;;;;;;;;;;4995997;28;20401;-76
2020/12/25 10:35:03;;;;;;;3.20;1.88;;;;;;;;;;5005874;28;20104;-76
2020/12/25 10:37:30;;;;;;;3.45;2.00;;;;;;;;;;4996286;28;20045;-75
2020/12/25 10:39:57;;;;;;;3.90;2.40;;;;;;;;;;5001601;28;20041;-75
2020/12/25 10:42:23;;;;;;;3.42;2.13;;;;;;;;;;5003684;28;20130;-77
2020/12/25 10:44:49;;;;;;;3.22;1.75;;;;;;;;;;5007877;28;20488;-76
2020/12/25 10:47:15;;;;;;;3.00;2.03;;;;;;;;;;4997664;28;20464;-75
2020/12/25 10:49:42;;;;;;;3.10;1.70;;;;;;;;;;5004247;28;20062;-77
2020/12/25 10:52:08;;;;;;;2.85;2.17;;;;;;;;;;5000955;28;20049;-76
2020/12/25 10:54:36;;;;;;;3.85;2.13;;;;;;;;;;4986644;28;20050;-76
2020/12/25 10:57:03;;;;;;;4.18;1.90;;;;;;;;;;4979324;28;20058;-76
2020/12/25 10:59:29;;;;;;;4.00;1.95;;;;;;;;;;4984453;28;20133;-75
2020/12/25 11:01:55;;;;;;;3.22;1.77;;;;;;;;;;5001729;28;20042;-75
2020/12/25 11:04:21;;;;;;;3.25;1.90;;;;;;;;;;4987547;28;20046;-75
2020/12/25 11:06:48;;;;;;;4.20;2.05;;;;;;;;;;5012242;28;20161;-74
2020/12/25 11:09:17;;;;;;;2.08;1.60;;;;;;;;;;5010032;28;20496;-74
2020/12/25 11:11:43;;;;;;;2.50;1.80;;;;;;;;;;5002327;28;20149;-75
2020/12/25 11:14:09;;;;;;;3.10;1.63;;;;;;;;;;5014188;28;20041;-76
2020/12/25 11:16:36;;;;;;;2.28;1.63;;;;;;;;;;5017290;28;20060;-75
2020/12/25 11:19:04;;;;;;;2.40;1.45;;;;;;;;;;5013474;28;20038;-76
2020/12/25 11:21:30;;;;;;;2.85;2.00;;;;;;;;;;5002175;28;20167;-75
2020/12/25 11:23:58;;;;;;;3.97;1.67;;;;;;;;;;5009448;28;20060;-74
2020/12/25 11:26:29;;;;;;;2.95;1.90;;;;;;;;;;5006231;28;20108;-75
2020/12/25 11:28:56;;;;;;;3.05;1.80;;;;;;;;;;5008511;28;20427;-75
2020/12/25 11:31:22;;;;;;;3.67;1.63;;;;;;;;;;5002428;28;20049;-75
2020/12/25 11:33:49;;;;;;;2.67;1.75;;;;;;;;;;4993152;28;20128;-75
2020/12/25 11:36:16;;;;;;;2.58;1.70;;;;;;;;;;5005491;28;20475;-75
2020/12/25 11:38:43;;;;;;;2.88;1.70;;;;;;;;;;4996707;28;20410;-75
2020/12/25 11:41:10;;;;;;;2.83;1.55;;;;;;;;;;5009148;28;20045;-75
2020/12/25 11:43:37;;;;;;;2.28;1.52;;;;;;;;;;5007051;28;20042;-76
2020/12/25 11:46:04;;;;;;;3.40;1.83;;;;;;;;;;5000589;28;20053;-79
2020/12/25 11:48:30;;;;;;;2.10;1.50;;;;;;;;;;5002052;28;20054;-77
2020/12/25 11:50:56;;;;;;;3.10;1.70;;;;;;;;;;5005638;28;20118;-76
2020/12/25 11:53:22;;;;;;;3.05;1.70;;;;;;;;;;5020112;28;20061;-76
2020/12/25 11:55:49;;;;;;;2.58;1.77;;;;;;;;;;5007055;28;20050;-76
2020/12/25 11:58:15;;;;;;;3.35;1.58;;;;;;;;;;5012852;28;20081;-78
2020/12/25 12:00:42;;;;;;;1.85;1.40;;;;;;;;;;5008493;28;20050;-76
2020/12/25 12:03:11;;;;;;;2.70;1.50;;;;;;;;;;5005540;28;20136;-74
2020/12/25 12:05:40;;;;;;;3.20;1.75;;;;;;;;;;5004771;28;20053;-75
2020/12/25 12:08:07;;;;;;;2.33;1.40;;;;;;;;;;5007291;28;20496;-76
2020/12/25 12:10:34;;;;;;;2.40;1.50;;;;;;;;;;5000510;28;20046;-76
2020/12/25 12:13:00;;;;;;;2.25;1.20;;;;;;;;;;5010951;28;20050;-76
2020/12/25 12:15:26;;;;;;;2.47;1.48;;;;;;;;;;5008246;28;20309;-76
2020/12/25 12:17:52;;;;;;;2.38;1.52;;;;;;;;;;5012249;28;20481;-75
2020/12/25 12:20:18;;;;;;;2.42;1.27;;;;;;;;;;5004305;28;20065;-75
2020/12/25 12:22:44;;;;;;;2.50;1.27;;;;;;;;;;5005830;28;20423;-76
2020/12/25 12:25:10;;;;;;;2.28;1.30;;;;;;;;;;5003773;28;20149;-76
2020/12/25 12:27:36;;;;;;;2.30;1.27;;;;;;;;;;5004207;28;20418;-77
2020/12/25 12:30:07;;;;;;;2.13;1.10;;;;;;;;;;5009497;28;20045;-83
2020/12/25 12:32:33;;;;;;;2.00;1.30;;;;;;;;;;5007625;28;20392;-85
2020/12/25 12:34:59;;;;;;;2.13;1.40;;;;;;;;;;5010305;28;20057;-81
2020/12/25 12:37:25;;;;;;;2.17;1.30;;;;;;;;;;4996082;28;20049;-84
2020/12/25 12:39:51;;;;;;;2.67;1.52;;;;;;;;;;5006090;28;20049;-82
2020/12/25 12:42:17;;;;;;;1.98;1.10;;;;;;;;;;4995736;28;20402;-81
2020/12/25 12:44:46;;;;;;;1.95;1.65;;;;;;;;;;5002717;28;20051;-81
2020/12/25 12:47:12;;;;;;;3.20;1.50;;;;;;;;;;5012763;28;20140;-80
2020/12/25 12:49:38;;;;;;;2.15;1.38;;;;;;;;;;5015981;28;20046;-79
2020/12/25 12:52:05;;;;;;;2.90;1.17;;;;;;;;;;5021882;28;20056;-79
2020/12/25 12:54:33;;;;;;;2.10;1.40;;;;;;;;;;5016163;28;20507;-78
2020/12/25 12:56:59;;;;;;;2.00;1.30;;;;;;;;;;5020875;28;20145;-76
2020/12/25 12:59:26;;;;;;;2.58;1.27;;;;;;;;;;5021931;28;20067;-77
2020/12/25 13:01:53;;;;;;;2.72;1.35;;;;;;;;;;5028508;28;20053;-77
2020/12/25 13:04:20;;;;;;;2.22;1.30;;;;;;;;;;5014334;28;20132;-81
2020/12/25 13:06:46;;;;;;;1.95;1.38;;;;;;;;;;5011157;28;20055;-77
2020/12/25 13:09:13;;;;;;;2.65;1.70;;;;;;;;;;5023520;28;20064;-79
2020/12/25 13:11:39;;;;;;;2.30;1.50;;;;;;;;;;5020504;28;20041;-79
2020/12/25 13:14:06;;;;;;;2.58;1.65;;;;;;;;;;5032719;28;20041;-77
2020/12/25 13:16:32;;;;;;;2.55;1.40;;;;;;;;;;5023364;28;20056;-79
2020/12/25 13:18:58;;;;;;;2.47;1.40;;;;;;;;;;5026618;28;20045;-78
2020/12/25 13:21:27;;;;;;;3.10;1.45;;;;;;;;;;5018496;28;20054;-78
2020/12/25 13:23:54;;;;;;;2.33;1.15;;;;;;;;;;5021153;28;20038;-79
2020/12/25 13:26:21;;;;;;;2.17;1.38;;;;;;;;;;5018860;28;20099;-76
2020/12/25 13:28:48;;;;;;;2.42;1.08;;;;;;;;;;5010685;28;20049;-77
2020/12/25 13:34:13;;;;;;;2.55;1.40;;;;;;;;;;4982459;28;20205;-84
2020/12/25 13:36:39;;;;;;;2.67;1.50;;;;;;;;;;4987582;28;20046;-86
2020/12/25 13:39:05;;;;;;;2.03;1.45;;;;;;;;;;4977960;28;20165;-86
2020/12/25 13:41:31;;;;;;;3.78;1.73;;;;;;;;;;4978268;28;20073;-84
2020/12/25 13:43:59;;;;;;;1.83;1.17;;;;;;;;;;4976757;28;20076;-85
2020/12/25 13:46:26;;;;;;;2.78;1.25;;;;;;;;;;4978492;28;20504;-84
2020/12/25 13:48:52;;;;;;;2.30;1.48;;;;;;;;;;4978001;28;20481;-84
2020/12/25 13:51:19;;;;;;;2.10;1.05;;;;;;;;;;4973639;28;20043;-83
2020/12/25 13:53:45;;;;;;;2.63;1.17;;;;;;;;;;4976974;28;20055;-84
2020/12/25 13:56:12;;;;;;;2.10;1.20;;;;;;;;;;4984330;28;20050;-83
2020/12/25 13:58:38;;;;;;;1.52;1.13;;;;;;;;;;4985995;28;20048;-79
2020/12/25 14:01:06;;;;;;;2.55;1.27;;;;;;;;;;4966642;28;20524;-79
2020/12/25 14:03:33;;;;;;;2.47;1.42;;;;;;;;;;4969730;28;20050;-79
2020/12/25 14:05:59;;;;;;;2.58;1.10;;;;;;;;;;4976079;28;20187;-82
2020/12/25 14:08:25;;;;;;;2.30;1.42;;;;;;;;;;4976037;28;20124;-81
2020/12/25 14:10:52;;;;;;;2.75;1.30;;;;;;;;;;4997887;28;20057;-81
2020/12/25 14:13:18;;;;;;;1.70;1.23;;;;;;;;;;4998876;28;20065;-80
2020/12/25 14:15:45;;;;;;;1.60;1.05;;;;;;;;;;4992367;28;20055;-80
2020/12/25 14:18:11;;;;;;;2.03;1.33;;;;;;;;;;4999702;28;20392;-80
2020/12/25 14:20:37;;;;;;;1.75;1.10;;;;;;;;;;4998888;28;20075;-79
2020/12/25 14:23:04;;;;;;;2.30;1.25;;;;;;;;;;4998598;28;20051;-82
2020/12/25 14:25:30;;;;;;;1.88;1.10;;;;;;;;;;4985195;28;20546;-82
2020/12/25 14:27:56;;;;;;;1.58;1.10;;;;;;;;;;5001363;28;20056;-82
2020/12/25 14:30:27;;;;;;;2.08;1.00;;;;;;;;;;4997594;28;20042;-80
2020/12/25 14:32:54;;;;;;;1.73;1.20;;;;;;;;;;4994989;28;20057;-80
2020/12/25 14:35:20;;;;;;;1.95;0.98;;;;;;;;;;4997412;28;20053;-81
2020/12/25 14:37:46;;;;;;;1.60;1.10;;;;;;;;;;4995468;28;20048;-80
2020/12/25 14:40:12;;;;;;;1.10;0.90;;;;;;;;;;4998814;28;20045;-81
2020/12/25 14:42:38;;;;;;;1.60;1.17;;;;;;;;;;4998858;28;20510;-80
2020/12/25 14:45:04;;;;;;;1.70;0.95;;;;;;;;;;4998687;28;20054;-80